sensor_id;sensor_type;location;lat;lon;timestamp;P1;durP1;ratioP1;P2;durP2;ratioP2
70313;SDS011;57725;47.526;18.986;2023-03-08T00:00:34;15.30;;;10.38;;
70313;SDS011;57725;47.526;18.986;2023-03-08T00:02:59;15.70;;;10.68;;
70313;SDS011;57725;47.526;18.986;2023-03-08T00:05:30;16.75;;;11.27;;
70313;SDS011;57725;47.526;18.986;2023-03-08T00:07:55;15.80;;;10.32;;
70313;SDS011;57725;47.526;18.986;2023-03-08T00:10:21;15.30;;;9.68;;
70313;SDS011;57725;47.526;18.986;2023-03-08T00:12:51;15.98;;;10.45;;
70313;SDS011;57725;47.526;18.986;2023-03-08T00:15:17;14.98;;;10.57;;
70313;SDS011;57725;47.526;18.986;2023-03-08T00:17:43;15.75;;;10.80;;
70313;SDS011;57725;47.526;18.986;2023-03-08T00:20:09;17.02;;;10.90;;
70313;SDS011;57725;47.526;18.986;2023-03-08T00:22:39;16.42;;;10.73;;
70313;SDS011;57725;47.526;18.986;2023-03-08T00:25:06;15.55;;;10.88;;
70313;SDS011;57725;47.526;18.986;2023-03-08T00:27:33;15.40;;;10.23;;
70313;SDS011;57725;47.526;18.986;2023-03-08T00:29:59;16.02;;;10.63;;
70313;SDS011;57725;47.526;18.986;2023-03-08T00:32:28;16.27;;;10.80;;
70313;SDS011;57725;47.526;18.986;2023-03-08T00:34:54;16.98;;;10.93;;
70313;SDS011;57725;47.526;18.986;2023-03-08T00:37:19;16.65;;;10.82;;
70313;SDS011;57725;47.526;18.986;2023-03-08T00:39:52;18.33;;;11.40;;
70313;SDS011;57725;47.526;18.986;2023-03-08T00:42:19;15.23;;;10.52;;
70313;SDS011;57725;47.526;18.986;2023-03-08T00:44:45;17.83;;;11.00;;
70313;SDS011;57725;47.526;18.986;2023-03-08T00:47:10;15.65;;;10.77;;
70313;SDS011;57725;47.526;18.986;2023-03-08T00:49:36;15.23;;;10.48;;
70313;SDS011;57725;47.526;18.986;2023-03-08T00:52:01;16.65;;;11.75;;
70313;SDS011;57725;47.526;18.986;2023-03-08T00:54:30;15.85;;;11.30;;
70313;SDS011;57725;47.526;18.986;2023-03-08T00:56:56;18.20;;;11.52;;
70313;SDS011;57725;47.526;18.986;2023-03-08T00:59:21;17.25;;;10.90;;
70313;SDS011;57725;47.526;18.986;2023-03-08T01:01:49;16.77;;;11.40;;
70313;SDS011;57725;47.526;18.986;2023-03-08T01:04:18;17.85;;;11.65;;
70313;SDS011;57725;47.526;18.986;2023-03-08T01:06:46;17.25;;;11.63;;
70313;SDS011;57725;47.526;18.986;2023-03-08T01:09:14;15.80;;;10.93;;
70313;SDS011;57725;47.526;18.986;2023-03-08T01:11:39;18.90;;;11.52;;
70313;SDS011;57725;47.526;18.986;2023-03-08T01:14:05;16.42;;;11.15;;
70313;SDS011;57725;47.526;18.986;2023-03-08T01:16:32;17.60;;;11.25;;
70313;SDS011;57725;47.526;18.986;2023-03-08T01:18:58;16.05;;;11.00;;
70313;SDS011;57725;47.526;18.986;2023-03-08T01:21:25;16.98;;;11.35;;
70313;SDS011;57725;47.526;18.986;2023-03-08T01:23:53;17.42;;;12.07;;
70313;SDS011;57725;47.526;18.986;2023-03-08T01:26:21;18.73;;;12.48;;
70313;SDS011;57725;47.526;18.986;2023-03-08T01:28:52;17.75;;;11.93;;
70313;SDS011;57725;47.526;18.986;2023-03-08T01:31:21;17.58;;;11.05;;
70313;SDS011;57725;47.526;18.986;2023-03-08T01:33:49;16.88;;;11.93;;
70313;SDS011;57725;47.526;18.986;2023-03-08T01:36:18;17.27;;;11.43;;
70313;SDS011;57725;47.526;18.986;2023-03-08T01:38:45;16.30;;;10.90;;
70313;SDS011;57725;47.526;18.986;2023-03-08T01:41:15;17.67;;;11.23;;
70313;SDS011;57725;47.526;18.986;2023-03-08T01:43:43;16.58;;;11.57;;
70313;SDS011;57725;47.526;18.986;2023-03-08T01:52:17;21.83;;;12.15;;
70313;SDS011;57725;47.526;18.986;2023-03-08T01:55:05;17.77;;;12.13;;
70313;SDS011;57725;47.526;18.986;2023-03-08T01:57:34;16.85;;;11.63;;
70313;SDS011;57725;47.526;18.986;2023-03-08T02:00:11;16.77;;;10.98;;
70313;SDS011;57725;47.526;18.986;2023-03-08T02:02:39;17.90;;;12.55;;
70313;SDS011;57725;47.526;18.986;2023-03-08T02:05:15;19.13;;;12.40;;
70313;SDS011;57725;47.526;18.986;2023-03-08T02:07:42;17.35;;;12.00;;
70313;SDS011;57725;47.526;18.986;2023-03-08T02:10:08;18.90;;;12.52;;
70313;SDS011;57725;47.526;18.986;2023-03-08T02:12:35;18.08;;;11.50;;
70313;SDS011;57725;47.526;18.986;2023-03-08T02:15:01;19.35;;;12.52;;
70313;SDS011;57725;47.526;18.986;2023-03-08T02:17:29;19.77;;;12.43;;
70313;SDS011;57725;47.526;18.986;2023-03-08T02:20:06;17.65;;;11.55;;
70313;SDS011;57725;47.526;18.986;2023-03-08T02:22:52;16.83;;;11.43;;
70313;SDS011;57725;47.526;18.986;2023-03-08T02:25:20;17.48;;;11.95;;
70313;SDS011;57725;47.526;18.986;2023-03-08T02:27:48;18.15;;;13.00;;
70313;SDS011;57725;47.526;18.986;2023-03-08T02:30:21;19.20;;;12.45;;
70313;SDS011;57725;47.526;18.986;2023-03-08T02:32:52;17.55;;;11.65;;
70313;SDS011;57725;47.526;18.986;2023-03-08T02:35:18;20.02;;;12.75;;
70313;SDS011;57725;47.526;18.986;2023-03-08T02:37:46;17.83;;;12.70;;
70313;SDS011;57725;47.526;18.986;2023-03-08T02:40:12;18.17;;;12.52;;
70313;SDS011;57725;47.526;18.986;2023-03-08T02:42:38;19.27;;;12.30;;
70313;SDS011;57725;47.526;18.986;2023-03-08T02:45:03;16.98;;;11.45;;
70313;SDS011;57725;47.526;18.986;2023-03-08T02:47:36;19.40;;;12.70;;
70313;SDS011;57725;47.526;18.986;2023-03-08T02:50:02;18.05;;;11.98;;
70313;SDS011;57725;47.526;18.986;2023-03-08T02:52:27;19.52;;;12.82;;
70313;SDS011;57725;47.526;18.986;2023-03-08T02:54:53;15.05;;;11.73;;
70313;SDS011;57725;47.526;18.986;2023-03-08T02:57:20;20.50;;;12.68;;
70313;SDS011;57725;47.526;18.986;2023-03-08T02:59:46;18.00;;;12.55;;
70313;SDS011;57725;47.526;18.986;2023-03-08T03:02:14;18.30;;;12.32;;
70313;SDS011;57725;47.526;18.986;2023-03-08T03:04:39;17.80;;;12.02;;
70313;SDS011;57725;47.526;18.986;2023-03-08T03:07:09;17.20;;;12.27;;
70313;SDS011;57725;47.526;18.986;2023-03-08T03:09:34;19.30;;;12.73;;
70313;SDS011;57725;47.526;18.986;2023-03-08T03:12:02;17.52;;;12.07;;
70313;SDS011;57725;47.526;18.986;2023-03-08T03:14:28;18.10;;;12.15;;
70313;SDS011;57725;47.526;18.986;2023-03-08T03:16:57;18.02;;;12.27;;
70313;SDS011;57725;47.526;18.986;2023-03-08T03:19:25;19.23;;;12.05;;
70313;SDS011;57725;47.526;18.986;2023-03-08T03:21:50;18.30;;;12.63;;
70313;SDS011;57725;47.526;18.986;2023-03-08T03:24:16;18.27;;;12.32;;
70313;SDS011;57725;47.526;18.986;2023-03-08T03:26:43;19.75;;;12.93;;
70313;SDS011;57725;47.526;18.986;2023-03-08T03:29:09;18.27;;;12.68;;
70313;SDS011;57725;47.526;18.986;2023-03-08T03:31:34;19.77;;;13.23;;
70313;SDS011;57725;47.526;18.986;2023-03-08T03:34:02;17.90;;;12.57;;
70313;SDS011;57725;47.526;18.986;2023-03-08T03:36:28;18.77;;;11.63;;
70313;SDS011;57725;47.526;18.986;2023-03-08T03:38:53;18.50;;;12.60;;
70313;SDS011;57725;47.526;18.986;2023-03-08T03:41:20;18.80;;;12.43;;
70313;SDS011;57725;47.526;18.986;2023-03-08T03:43:46;16.50;;;12.07;;
70313;SDS011;57725;47.526;18.986;2023-03-08T03:46:13;19.08;;;12.23;;
70313;SDS011;57725;47.526;18.986;2023-03-08T03:48:39;19.10;;;12.30;;
70313;SDS011;57725;47.526;18.986;2023-03-08T03:51:06;17.75;;;12.25;;
70313;SDS011;57725;47.526;18.986;2023-03-08T03:53:34;17.80;;;12.23;;
70313;SDS011;57725;47.526;18.986;2023-03-08T03:56:02;19.38;;;12.38;;
70313;SDS011;57725;47.526;18.986;2023-03-08T03:58:50;18.50;;;12.43;;
70313;SDS011;57725;47.526;18.986;2023-03-08T04:01:16;19.08;;;12.38;;
70313;SDS011;57725;47.526;18.986;2023-03-08T04:03:49;18.80;;;12.95;;
70313;SDS011;57725;47.526;18.986;2023-03-08T04:06:16;19.40;;;12.43;;
70313;SDS011;57725;47.526;18.986;2023-03-08T04:08:43;19.92;;;12.77;;
70313;SDS011;57725;47.526;18.986;2023-03-08T04:11:10;17.67;;;12.18;;
70313;SDS011;57725;47.526;18.986;2023-03-08T04:13:39;17.70;;;12.30;;
70313;SDS011;57725;47.526;18.986;2023-03-08T04:16:12;18.77;;;12.70;;
70313;SDS011;57725;47.526;18.986;2023-03-08T04:18:45;20.27;;;13.43;;
70313;SDS011;57725;47.526;18.986;2023-03-08T04:21:11;18.88;;;12.57;;
70313;SDS011;57725;47.526;18.986;2023-03-08T04:23:39;18.95;;;13.73;;
70313;SDS011;57725;47.526;18.986;2023-03-08T04:26:10;20.33;;;12.57;;
70313;SDS011;57725;47.526;18.986;2023-03-08T04:28:38;19.30;;;12.93;;
70313;SDS011;57725;47.526;18.986;2023-03-08T04:31:13;19.77;;;12.43;;
70313;SDS011;57725;47.526;18.986;2023-03-08T04:33:44;18.67;;;12.98;;
70313;SDS011;57725;47.526;18.986;2023-03-08T04:36:10;20.85;;;13.50;;
70313;SDS011;57725;47.526;18.986;2023-03-08T04:38:39;20.00;;;13.30;;
70313;SDS011;57725;47.526;18.986;2023-03-08T04:41:05;19.80;;;12.90;;
70313;SDS011;57725;47.526;18.986;2023-03-08T04:43:37;17.13;;;12.43;;
70313;SDS011;57725;47.526;18.986;2023-03-08T04:46:04;19.27;;;12.82;;
70313;SDS011;57725;47.526;18.986;2023-03-08T04:48:32;18.65;;;12.77;;
70313;SDS011;57725;47.526;18.986;2023-03-08T04:50:59;19.27;;;13.05;;
70313;SDS011;57725;47.526;18.986;2023-03-08T04:53:28;18.95;;;12.85;;
70313;SDS011;57725;47.526;18.986;2023-03-08T04:55:55;19.83;;;13.05;;
70313;SDS011;57725;47.526;18.986;2023-03-08T04:58:21;19.75;;;12.95;;
70313;SDS011;57725;47.526;18.986;2023-03-08T05:00:47;22.45;;;13.80;;
70313;SDS011;57725;47.526;18.986;2023-03-08T05:03:12;18.75;;;12.73;;
70313;SDS011;57725;47.526;18.986;2023-03-08T05:05:45;19.48;;;13.23;;
70313;SDS011;57725;47.526;18.986;2023-03-08T05:08:12;18.70;;;13.00;;
70313;SDS011;57725;47.526;18.986;2023-03-08T05:10:38;21.35;;;12.50;;
70313;SDS011;57725;47.526;18.986;2023-03-08T05:13:03;19.20;;;12.80;;
70313;SDS011;57725;47.526;18.986;2023-03-08T05:15:28;22.40;;;14.45;;
70313;SDS011;57725;47.526;18.986;2023-03-08T05:17:54;19.65;;;12.85;;
70313;SDS011;57725;47.526;18.986;2023-03-08T05:20:19;20.08;;;12.93;;
70313;SDS011;57725;47.526;18.986;2023-03-08T05:22:47;18.58;;;12.90;;
70313;SDS011;57725;47.526;18.986;2023-03-08T05:25:12;19.58;;;13.07;;
70313;SDS011;57725;47.526;18.986;2023-03-08T05:27:38;19.17;;;13.43;;
70313;SDS011;57725;47.526;18.986;2023-03-08T05:30:04;19.52;;;12.45;;
70313;SDS011;57725;47.526;18.986;2023-03-08T05:32:30;19.60;;;13.27;;
70313;SDS011;57725;47.526;18.986;2023-03-08T05:34:58;20.98;;;13.70;;
70313;SDS011;57725;47.526;18.986;2023-03-08T05:37:23;20.58;;;13.60;;
70313;SDS011;57725;47.526;18.986;2023-03-08T05:39:50;21.38;;;14.73;;
70313;SDS011;57725;47.526;18.986;2023-03-08T05:42:16;20.50;;;12.57;;
70313;SDS011;57725;47.526;18.986;2023-03-08T05:44:44;20.67;;;13.95;;
70313;SDS011;57725;47.526;18.986;2023-03-08T05:47:10;19.52;;;12.52;;
70313;SDS011;57725;47.526;18.986;2023-03-08T05:49:36;22.15;;;14.43;;
70313;SDS011;57725;47.526;18.986;2023-03-08T05:52:07;18.67;;;12.90;;
70313;SDS011;57725;47.526;18.986;2023-03-08T05:54:35;20.75;;;13.45;;
70313;SDS011;57725;47.526;18.986;2023-03-08T05:57:04;20.98;;;13.10;;
70313;SDS011;57725;47.526;18.986;2023-03-08T05:59:32;22.58;;;14.60;;
70313;SDS011;57725;47.526;18.986;2023-03-08T06:02:00;20.17;;;13.07;;
70313;SDS011;57725;47.526;18.986;2023-03-08T06:04:25;20.67;;;14.27;;
70313;SDS011;57725;47.526;18.986;2023-03-08T06:06:50;20.70;;;13.35;;
70313;SDS011;57725;47.526;18.986;2023-03-08T06:09:18;21.70;;;14.35;;
70313;SDS011;57725;47.526;18.986;2023-03-08T06:11:44;21.42;;;13.75;;
70313;SDS011;57725;47.526;18.986;2023-03-08T06:14:09;20.77;;;13.70;;
70313;SDS011;57725;47.526;18.986;2023-03-08T06:16:35;20.95;;;13.77;;
70313;SDS011;57725;47.526;18.986;2023-03-08T06:19:01;21.40;;;13.82;;
70313;SDS011;57725;47.526;18.986;2023-03-08T06:21:27;20.15;;;12.90;;
70313;SDS011;57725;47.526;18.986;2023-03-08T06:23:52;19.88;;;13.98;;
70313;SDS011;57725;47.526;18.986;2023-03-08T06:26:18;19.58;;;13.32;;
70313;SDS011;57725;47.526;18.986;2023-03-08T06:28:44;19.98;;;13.02;;
70313;SDS011;57725;47.526;18.986;2023-03-08T06:31:13;20.58;;;13.40;;
70313;SDS011;57725;47.526;18.986;2023-03-08T06:33:40;21.08;;;13.32;;
70313;SDS011;57725;47.526;18.986;2023-03-08T06:36:07;20.05;;;13.90;;
70313;SDS011;57725;47.526;18.986;2023-03-08T06:38:38;19.98;;;13.27;;
70313;SDS011;57725;47.526;18.986;2023-03-08T06:41:07;19.70;;;13.15;;
70313;SDS011;57725;47.526;18.986;2023-03-08T06:43:33;19.35;;;13.90;;
70313;SDS011;57725;47.526;18.986;2023-03-08T06:46:03;18.02;;;12.52;;
70313;SDS011;57725;47.526;18.986;2023-03-08T06:48:33;20.08;;;13.20;;
70313;SDS011;57725;47.526;18.986;2023-03-08T06:50:59;20.85;;;13.68;;
70313;SDS011;57725;47.526;18.986;2023-03-08T06:53:25;20.98;;;13.48;;
70313;SDS011;57725;47.526;18.986;2023-03-08T06:55:50;21.00;;;13.68;;
70313;SDS011;57725;47.526;18.986;2023-03-08T06:58:16;21.92;;;13.20;;
70313;SDS011;57725;47.526;18.986;2023-03-08T07:00:42;20.17;;;13.73;;
70313;SDS011;57725;47.526;18.986;2023-03-08T07:03:07;20.70;;;14.18;;
70313;SDS011;57725;47.526;18.986;2023-03-08T07:05:33;18.42;;;13.07;;
70313;SDS011;57725;47.526;18.986;2023-03-08T07:08:01;19.52;;;12.85;;
70313;SDS011;57725;47.526;18.986;2023-03-08T07:10:27;19.45;;;13.35;;
70313;SDS011;57725;47.526;18.986;2023-03-08T07:12:54;18.80;;;13.70;;
70313;SDS011;57725;47.526;18.986;2023-03-08T07:15:21;19.40;;;12.32;;
70313;SDS011;57725;47.526;18.986;2023-03-08T07:17:48;17.83;;;12.10;;
70313;SDS011;57725;47.526;18.986;2023-03-08T07:20:16;19.67;;;12.80;;
70313;SDS011;57725;47.526;18.986;2023-03-08T07:22:43;20.17;;;13.13;;
70313;SDS011;57725;47.526;18.986;2023-03-08T07:25:13;18.33;;;12.48;;
70313;SDS011;57725;47.526;18.986;2023-03-08T07:27:39;19.00;;;12.50;;
70313;SDS011;57725;47.526;18.986;2023-03-08T07:30:05;19.88;;;12.52;;
70313;SDS011;57725;47.526;18.986;2023-03-08T07:32:38;17.08;;;12.13;;
70313;SDS011;57725;47.526;18.986;2023-03-08T07:35:05;21.50;;;12.45;;
70313;SDS011;57725;47.526;18.986;2023-03-08T07:37:36;18.67;;;12.30;;
70313;SDS011;57725;47.526;18.986;2023-03-08T07:40:04;18.98;;;12.40;;
70313;SDS011;57725;47.526;18.986;2023-03-08T07:42:37;18.52;;;11.70;;
70313;SDS011;57725;47.526;18.986;2023-03-08T07:45:03;17.58;;;11.65;;
70313;SDS011;57725;47.526;18.986;2023-03-08T07:47:30;18.70;;;12.38;;
70313;SDS011;57725;47.526;18.986;2023-03-08T07:49:56;19.35;;;12.40;;
70313;SDS011;57725;47.526;18.986;2023-03-08T07:52:25;19.10;;;12.60;;
70313;SDS011;57725;47.526;18.986;2023-03-08T07:54:54;18.42;;;11.73;;
70313;SDS011;57725;47.526;18.986;2023-03-08T07:57:22;15.63;;;11.07;;
70313;SDS011;57725;47.526;18.986;2023-03-08T07:59:50;19.88;;;12.15;;
70313;SDS011;57725;47.526;18.986;2023-03-08T08:02:20;15.93;;;11.10;;
70313;SDS011;57725;47.526;18.986;2023-03-08T08:04:46;15.57;;;10.93;;
70313;SDS011;57725;47.526;18.986;2023-03-08T08:07:15;16.38;;;10.80;;
70313;SDS011;57725;47.526;18.986;2023-03-08T08:09:41;17.35;;;11.65;;
70313;SDS011;57725;47.526;18.986;2023-03-08T08:12:10;16.35;;;10.80;;
70313;SDS011;57725;47.526;18.986;2023-03-08T08:14:36;17.65;;;12.02;;
70313;SDS011;57725;47.526;18.986;2023-03-08T08:17:01;17.98;;;11.60;;
70313;SDS011;57725;47.526;18.986;2023-03-08T08:19:29;17.13;;;11.55;;
70313;SDS011;57725;47.526;18.986;2023-03-08T08:21:56;18.02;;;11.98;;
70313;SDS011;57725;47.526;18.986;2023-03-08T08:24:21;17.38;;;11.70;;
70313;SDS011;57725;47.526;18.986;2023-03-08T08:26:47;15.93;;;11.40;;
70313;SDS011;57725;47.526;18.986;2023-03-08T08:29:12;15.88;;;10.35;;
70313;SDS011;57725;47.526;18.986;2023-03-08T08:31:37;16.35;;;10.75;;
70313;SDS011;57725;47.526;18.986;2023-03-08T08:34:03;14.00;;;9.95;;
70313;SDS011;57725;47.526;18.986;2023-03-08T08:36:29;15.15;;;11.00;;
70313;SDS011;57725;47.526;18.986;2023-03-08T08:38:56;16.35;;;10.57;;
70313;SDS011;57725;47.526;18.986;2023-03-08T08:41:30;17.45;;;11.05;;
70313;SDS011;57725;47.526;18.986;2023-03-08T08:43:57;15.52;;;10.57;;
70313;SDS011;57725;47.526;18.986;2023-03-08T08:46:26;15.88;;;10.55;;
70313;SDS011;57725;47.526;18.986;2023-03-08T08:48:53;15.70;;;10.43;;
70313;SDS011;57725;47.526;18.986;2023-03-08T08:51:22;15.95;;;10.75;;
70313;SDS011;57725;47.526;18.986;2023-03-08T08:53:48;16.05;;;10.82;;
70313;SDS011;57725;47.526;18.986;2023-03-08T08:56:15;14.52;;;10.18;;
70313;SDS011;57725;47.526;18.986;2023-03-08T08:58:43;16.23;;;10.07;;
70313;SDS011;57725;47.526;18.986;2023-03-08T09:01:12;16.35;;;11.13;;
70313;SDS011;57725;47.526;18.986;2023-03-08T09:03:43;13.90;;;9.57;;
70313;SDS011;57725;47.526;18.986;2023-03-08T09:06:09;15.00;;;10.07;;
70313;SDS011;57725;47.526;18.986;2023-03-08T09:08:35;15.55;;;10.40;;
70313;SDS011;57725;47.526;18.986;2023-03-08T09:11:03;15.10;;;10.15;;
70313;SDS011;57725;47.526;18.986;2023-03-08T09:13:30;14.73;;;9.88;;
70313;SDS011;57725;47.526;18.986;2023-03-08T09:15:55;14.38;;;9.38;;
70313;SDS011;57725;47.526;18.986;2023-03-08T09:18:28;14.48;;;9.40;;
70313;SDS011;57725;47.526;18.986;2023-03-08T09:20:53;16.27;;;9.90;;
70313;SDS011;57725;47.526;18.986;2023-03-08T09:23:18;16.90;;;10.30;;
70313;SDS011;57725;47.526;18.986;2023-03-08T09:25:44;14.25;;;8.82;;
70313;SDS011;57725;47.526;18.986;2023-03-08T09:28:12;13.93;;;10.13;;
70313;SDS011;57725;47.526;18.986;2023-03-08T09:30:37;15.88;;;10.05;;
70313;SDS011;57725;47.526;18.986;2023-03-08T09:33:03;15.15;;;10.10;;
70313;SDS011;57725;47.526;18.986;2023-03-08T09:35:31;14.48;;;9.57;;
70313;SDS011;57725;47.526;18.986;2023-03-08T09:37:56;14.45;;;9.27;;
70313;SDS011;57725;47.526;18.986;2023-03-08T09:40:24;15.35;;;9.32;;
70313;SDS011;57725;47.526;18.986;2023-03-08T09:42:51;15.02;;;9.23;;
70313;SDS011;57725;47.526;18.986;2023-03-08T09:55:37;14.00;;;9.15;;
70313;SDS011;57725;47.526;18.986;2023-03-08T09:58:21;12.73;;;8.82;;
70313;SDS011;57725;47.526;18.986;2023-03-08T10:00:49;13.52;;;8.80;;
70313;SDS011;57725;47.526;18.986;2023-03-08T10:05:56;12.15;;;8.88;;
70313;SDS011;57725;47.526;18.986;2023-03-08T10:08:31;14.18;;;10.05;;
70313;SDS011;57725;47.526;18.986;2023-03-08T10:11:04;14.00;;;9.00;;
70313;SDS011;57725;47.526;18.986;2023-03-08T10:13:41;14.38;;;9.27;;
70313;SDS011;57725;47.526;18.986;2023-03-08T10:16:16;11.63;;;8.43;;
70313;SDS011;57725;47.526;18.986;2023-03-08T10:18:50;15.85;;;9.13;;
70313;SDS011;57725;47.526;18.986;2023-03-08T10:21:20;13.93;;;9.45;;
70313;SDS011;57725;47.526;18.986;2023-03-08T10:23:51;12.68;;;8.63;;
70313;SDS011;57725;47.526;18.986;2023-03-08T10:26:24;13.50;;;8.75;;
70313;SDS011;57725;47.526;18.986;2023-03-08T10:28:50;14.82;;;8.93;;
70313;SDS011;57725;47.526;18.986;2023-03-08T10:31:32;12.40;;;8.60;;
70313;SDS011;57725;47.526;18.986;2023-03-08T10:34:09;13.45;;;9.10;;
70313;SDS011;57725;47.526;18.986;2023-03-08T10:39:24;13.15;;;8.85;;
70313;SDS011;57725;47.526;18.986;2023-03-08T10:41:51;12.13;;;8.18;;
70313;SDS011;57725;47.526;18.986;2023-03-08T10:44:28;13.55;;;9.30;;
70313;SDS011;57725;47.526;18.986;2023-03-08T10:46:54;13.45;;;8.65;;
70313;SDS011;57725;47.526;18.986;2023-03-08T10:49:22;13.82;;;9.13;;
70313;SDS011;57725;47.526;18.986;2023-03-08T10:51:58;13.93;;;9.15;;
70313;SDS011;57725;47.526;18.986;2023-03-08T10:54:27;12.68;;;8.98;;
70313;SDS011;57725;47.526;18.986;2023-03-08T10:56:56;14.20;;;9.57;;
70313;SDS011;57725;47.526;18.986;2023-03-08T11:01:58;14.60;;;9.30;;
70313;SDS011;57725;47.526;18.986;2023-03-08T11:04:58;14.77;;;9.02;;
70313;SDS011;57725;47.526;18.986;2023-03-08T11:07:26;12.57;;;8.07;;
70313;SDS011;57725;47.526;18.986;2023-03-08T11:12:36;13.48;;;8.73;;
70313;SDS011;57725;47.526;18.986;2023-03-08T11:15:01;14.57;;;9.77;;
70313;SDS011;57725;47.526;18.986;2023-03-08T11:18:04;12.38;;;8.63;;
70313;SDS011;57725;47.526;18.986;2023-03-08T11:20:48;13.93;;;8.68;;
70313;SDS011;57725;47.526;18.986;2023-03-08T11:23:25;14.15;;;9.48;;
70313;SDS011;57725;47.526;18.986;2023-03-08T11:25:59;12.98;;;8.70;;
70313;SDS011;57725;47.526;18.986;2023-03-08T11:31:55;14.13;;;8.90;;
70313;SDS011;57725;47.526;18.986;2023-03-08T11:37:49;12.67;;;8.80;;
70313;SDS011;57725;47.526;18.986;2023-03-08T11:40:27;12.88;;;8.85;;
70313;SDS011;57725;47.526;18.986;2023-03-08T11:51:18;13.52;;;8.52;;
70313;SDS011;57725;47.526;18.986;2023-03-08T11:53:40;13.20;;;8.85;;
70313;SDS011;57725;47.526;18.986;2023-03-08T11:56:45;14.48;;;8.80;;
70313;SDS011;57725;47.526;18.986;2023-03-08T12:01:53;15.48;;;9.52;;
70313;SDS011;57725;47.526;18.986;2023-03-08T12:07:29;15.55;;;8.73;;
70313;SDS011;57725;47.526;18.986;2023-03-08T12:10:03;14.40;;;9.05;;
70313;SDS011;57725;47.526;18.986;2023-03-08T12:12:42;12.25;;;8.48;;
70313;SDS011;57725;47.526;18.986;2023-03-08T12:18:19;13.25;;;8.77;;
70313;SDS011;57725;47.526;18.986;2023-03-08T12:20:45;14.57;;;9.25;;
70313;SDS011;57725;47.526;18.986;2023-03-08T12:25:53;14.80;;;9.73;;
70313;SDS011;57725;47.526;18.986;2023-03-08T12:28:42;14.55;;;9.25;;
70313;SDS011;57725;47.526;18.986;2023-03-08T12:31:28;14.60;;;9.48;;
70313;SDS011;57725;47.526;18.986;2023-03-08T12:33:58;15.15;;;9.82;;
70313;SDS011;57725;47.526;18.986;2023-03-08T12:36:40;12.95;;;8.75;;
70313;SDS011;57725;47.526;18.986;2023-03-08T12:39:29;15.13;;;9.77;;
70313;SDS011;57725;47.526;18.986;2023-03-08T12:41:59;14.52;;;9.43;;
70313;SDS011;57725;47.526;18.986;2023-03-08T12:44:27;13.88;;;9.27;;
70313;SDS011;57725;47.526;18.986;2023-03-08T12:47:22;14.15;;;9.35;;
70313;SDS011;57725;47.526;18.986;2023-03-08T12:49:49;12.55;;;8.02;;
70313;SDS011;57725;47.526;18.986;2023-03-08T12:57:46;12.50;;;8.93;;
70313;SDS011;57725;47.526;18.986;2023-03-08T13:02:56;14.77;;;8.27;;
70313;SDS011;57725;47.526;18.986;2023-03-08T13:10:31;13.05;;;8.57;;
70313;SDS011;57725;47.526;18.986;2023-03-08T13:13:04;13.43;;;8.90;;
70313;SDS011;57725;47.526;18.986;2023-03-08T13:15:31;14.38;;;9.38;;
70313;SDS011;57725;47.526;18.986;2023-03-08T13:18:03;13.85;;;9.48;;
70313;SDS011;57725;47.526;18.986;2023-03-08T13:28:21;13.57;;;9.20;;
70313;SDS011;57725;47.526;18.986;2023-03-08T13:30:50;14.52;;;9.63;;
70313;SDS011;57725;47.526;18.986;2023-03-08T13:33:43;13.77;;;9.07;;
70313;SDS011;57725;47.526;18.986;2023-03-08T13:36:21;13.50;;;9.20;;
70313;SDS011;57725;47.526;18.986;2023-03-08T13:44:25;13.65;;;8.90;;
70313;SDS011;57725;47.526;18.986;2023-03-08T13:46:56;12.82;;;8.48;;
70313;SDS011;57725;47.526;18.986;2023-03-08T13:49:34;14.57;;;9.25;;
70313;SDS011;57725;47.526;18.986;2023-03-08T13:52:02;15.05;;;8.45;;
70313;SDS011;57725;47.526;18.986;2023-03-08T13:54:34;13.20;;;8.95;;
70313;SDS011;57725;47.526;18.986;2023-03-08T13:57:03;13.35;;;9.27;;
70313;SDS011;57725;47.526;18.986;2023-03-08T13:59:32;13.98;;;8.82;;
70313;SDS011;57725;47.526;18.986;2023-03-08T14:02:01;12.75;;;8.73;;
70313;SDS011;57725;47.526;18.986;2023-03-08T14:04:28;14.18;;;9.02;;
70313;SDS011;57725;47.526;18.986;2023-03-08T14:06:58;13.38;;;8.57;;
70313;SDS011;57725;47.526;18.986;2023-03-08T14:09:25;14.82;;;9.13;;
70313;SDS011;57725;47.526;18.986;2023-03-08T14:12:03;13.05;;;8.75;;
70313;SDS011;57725;47.526;18.986;2023-03-08T14:14:31;16.30;;;9.07;;
70313;SDS011;57725;47.526;18.986;2023-03-08T14:16:59;12.98;;;8.35;;
70313;SDS011;57725;47.526;18.986;2023-03-08T14:19:29;12.35;;;8.73;;
70313;SDS011;57725;47.526;18.986;2023-03-08T14:21:57;12.35;;;8.10;;
70313;SDS011;57725;47.526;18.986;2023-03-08T14:24:29;13.75;;;9.52;;
70313;SDS011;57725;47.526;18.986;2023-03-08T14:27:00;13.57;;;8.50;;
70313;SDS011;57725;47.526;18.986;2023-03-08T14:29:28;12.70;;;8.32;;
70313;SDS011;57725;47.526;18.986;2023-03-08T14:32:23;11.77;;;8.65;;
70313;SDS011;57725;47.526;18.986;2023-03-08T14:34:46;11.90;;;8.55;;
70313;SDS011;57725;47.526;18.986;2023-03-08T14:37:25;12.07;;;8.05;;
70313;SDS011;57725;47.526;18.986;2023-03-08T14:39:53;13.75;;;9.68;;
70313;SDS011;57725;47.526;18.986;2023-03-08T14:42:29;13.00;;;8.88;;
70313;SDS011;57725;47.526;18.986;2023-03-08T14:45:05;13.40;;;8.27;;
70313;SDS011;57725;47.526;18.986;2023-03-08T14:47:46;12.95;;;8.77;;
70313;SDS011;57725;47.526;18.986;2023-03-08T14:50:20;12.30;;;8.82;;
70313;SDS011;57725;47.526;18.986;2023-03-08T14:52:49;12.48;;;8.30;;
70313;SDS011;57725;47.526;18.986;2023-03-08T14:57:48;14.95;;;8.35;;
70313;SDS011;57725;47.526;18.986;2023-03-08T15:00:16;12.95;;;8.30;;
70313;SDS011;57725;47.526;18.986;2023-03-08T15:02:45;10.90;;;7.35;;
70313;SDS011;57725;47.526;18.986;2023-03-08T15:05:11;13.27;;;7.95;;
70313;SDS011;57725;47.526;18.986;2023-03-08T15:07:41;12.68;;;7.80;;
70313;SDS011;57725;47.526;18.986;2023-03-08T15:10:30;13.15;;;8.68;;
70313;SDS011;57725;47.526;18.986;2023-03-08T15:13:05;13.45;;;8.18;;
70313;SDS011;57725;47.526;18.986;2023-03-08T15:15:36;12.38;;;8.35;;
70313;SDS011;57725;47.526;18.986;2023-03-08T15:18:03;13.13;;;8.65;;
70313;SDS011;57725;47.526;18.986;2023-03-08T15:20:29;11.93;;;7.82;;
70313;SDS011;57725;47.526;18.986;2023-03-08T15:22:55;13.05;;;8.38;;
70313;SDS011;57725;47.526;18.986;2023-03-08T15:25:26;13.25;;;8.10;;
70313;SDS011;57725;47.526;18.986;2023-03-08T15:27:52;11.32;;;7.95;;
70313;SDS011;57725;47.526;18.986;2023-03-08T15:30:22;13.18;;;8.80;;
70313;SDS011;57725;47.526;18.986;2023-03-08T15:32:49;9.73;;;7.00;;
70313;SDS011;57725;47.526;18.986;2023-03-08T15:35:15;11.68;;;8.15;;
70313;SDS011;57725;47.526;18.986;2023-03-08T15:37:42;11.05;;;7.75;;
70313;SDS011;57725;47.526;18.986;2023-03-08T15:40:16;12.13;;;8.07;;
70313;SDS011;57725;47.526;18.986;2023-03-08T15:42:43;12.90;;;8.30;;
70313;SDS011;57725;47.526;18.986;2023-03-08T15:45:09;11.32;;;7.38;;
70313;SDS011;57725;47.526;18.986;2023-03-08T15:47:40;11.88;;;7.95;;